Time;durP1;ratioP1;P1;durP2;ratioP2;P2;SDS_P1;SDS_P2;PMS_P1;PMS_P2;Temp;Humidity;BMP_temperature;BMP_pressure;BME280_temperature;BME280_humidity;BME280_pressure;Samples;Min_cycle;Max_cycle;Signal;HPM_P1;HPM_P2
2022/11/14 00:00:30;;;;;;;;;;;;;;;9.87;100.00;99567.28;4945764;29;20393;-82
2022/11/14 00:02:58;;;;;;;;;;;;;;;9.93;100.00;99561.75;4940929;28;19923;-85
2022/11/14 00:05:23;;;;;;;;;;;;;;;9.90;100.00;99560.06;4956907;28;19941;-85
2022/11/14 00:07:49;;;;;;;;;;;;;;;9.89;100.00;99557.50;4957053;29;20371;-83
2022/11/14 00:10:14;;;;;;;;;;;;;;;9.88;100.00;99551.34;4956096;29;19925;-84
2022/11/14 00:12:39;;;;;;;;;;;;;;;9.91;100.00;99550.38;4957149;28;19923;-83
2022/11/14 00:15:05;;;;;;;;;;;;;;;9.90;100.00;99548.63;4956848;28;19966;-83
2022/11/14 00:17:30;;;;;;;;;;;;;;;9.89;100.00;99541.63;4945221;28;19923;-86
2022/11/14 00:19:56;;;;;;;;;;;;;;;9.89;100.00;99546.91;4949626;29;20021;-86
2022/11/14 00:22:21;;;;;;;;;;;;;;;9.89;100.00;99539.84;4946235;29;19929;-85
2022/11/14 00:24:47;;;;;;;;;;;;;;;9.89;100.00;99539.84;4943470;29;20165;-87
2022/11/14 00:27:13;;;;;;;;;;;;;;;9.91;100.00;99532.69;4941362;29;19945;-83
2022/11/14 00:29:38;;;;;;;;;;;;;;;9.90;100.00;99524.81;4950516;28;20445;-84
2022/11/14 00:32:04;;;;;;;;;;;;;;;9.91;100.00;99519.47;4940315;29;19927;-85
2022/11/14 00:34:29;;;;;;;;;;;;;;;9.90;100.00;99517.72;4942685;29;20001;-88
2022/11/14 00:36:54;;;;;;;;;;;;;;;9.91;100.00;99516.81;4947170;29;19919;-86
2022/11/14 00:39:19;;;;;;;;;;;;;;;9.90;100.00;99515.09;4941770;29;19974;-86
2022/11/14 00:41:45;;;;;;;;;;;;;;;9.90;100.00;99512.44;4955558;28;20337;-86
2022/11/14 00:44:10;;;;;;;;;;;;;;;9.91;100.00;99503.59;4939777;29;20024;-84
2022/11/14 00:46:35;;;;;;;;;;;;;;;9.93;100.00;99512.31;4940476;29;20489;-86
2022/11/14 00:49:01;;;;;;;;;;;;;;;9.92;100.00;99505.28;4956205;28;19919;-85
2022/11/14 00:51:26;;;;;;;;;;;;;;;9.92;100.00;99499.13;4956454;29;20330;-86
2022/11/14 00:53:51;;;;;;;;;;;;;;;9.93;100.00;99500.88;4944791;29;20431;-86
2022/11/14 00:56:17;;;;;;;;;;;;;;;9.91;100.00;99492.16;4935852;29;19978;-82
2022/11/14 03:22:31;;;;;;;;;;;;;;;10.00;100.00;99333.78;4903385;29;20302;-84
2022/11/14 03:24:56;;;;;;;;;;;;;;;9.99;100.00;99334.69;4916805;29;19923;-83
2022/11/14 03:27:21;;;;;;;;;;;;;;;10.02;100.00;99324.88;4916677;29;19919;-86
2022/11/14 03:29:47;;;;;;;;;;;;;;;9.99;100.00;99326.75;4916765;29;20010;-86
2022/11/14 03:32:13;;;;;;;;;;;;;;;10.00;100.00;99317.00;4916738;29;20070;-86
2022/11/14 03:34:38;;;;;;;;;;;;;;;9.99;100.00;99316.16;4916836;29;19919;-87
2022/11/14 03:37:03;;;;;;;;;;;;;;;10.03;100.00;99331.91;4915544;29;19919;-87
2022/11/14 03:39:28;;;;;;;;;;;;;;;10.03;100.00;99326.63;4916587;29;19930;-87
2022/11/14 03:41:54;;;;;;;;;;;;;;;10.03;100.00;99323.97;4915328;29;19926;-89
2022/11/14 03:44:19;;;;;;;;;;;;;;;10.03;100.00;99326.63;4916602;29;19926;-89
2022/11/14 03:46:44;;;;;;;;;;;;;;;10.04;100.00;99323.03;4916549;29;19919;-89
2022/11/14 03:49:10;;;;;;;;;;;;;;;10.04;100.00;99334.47;4915470;29;19930;-87
2022/11/14 03:51:37;;;;;;;;;;;;;;;10.04;100.00;99331.84;4915227;29;20366;-86
2022/11/14 03:54:03;;;;;;;;;;;;;;;10.04;100.00;99325.69;4916680;29;19950;-87
2022/11/14 03:56:28;;;;;;;;;;;;;;;10.03;100.00;99326.63;4916342;29;19953;-88
2022/11/14 03:58:56;;;;;;;;;;;;;;;10.06;100.00;99332.59;4916415;29;20009;-87
2022/11/14 04:01:21;;;;;;;;;;;;;;;10.06;100.00;99326.47;4916446;29;19923;-87
2022/11/14 04:03:49;;;;;;;;;;;;;;;10.07;100.00;99325.50;4916501;29;20397;-92
2022/11/14 04:06:15;;;;;;;;;;;;;;;10.06;100.00;99323.81;4915162;29;19975;-87
2022/11/14 04:08:40;;;;;;;;;;;;;;;10.06;100.00;99322.03;4919480;29;19919;-86
2022/11/14 04:11:05;;;;;;;;;;;;;;;10.08;100.00;99319.31;4919711;29;19979;-88
2022/11/14 04:13:31;;;;;;;;;;;;;;;10.06;100.00;99311.44;4918474;29;19977;-87
2022/11/14 04:15:57;;;;;;;;;;;;;;;10.06;100.00;99311.44;4919747;29;20359;-87
2022/11/14 04:18:22;;;;;;;;;;;;;;;10.08;100.00;99298.97;4919648;29;19919;-87
2022/11/14 04:20:47;;;;;;;;;;;;;;;10.09;100.00;99305.16;4917105;29;19919;-88
2022/11/14 04:23:13;;;;;;;;;;;;;;;10.07;100.00;99296.41;4919502;29;19923;-88
2022/11/14 04:25:38;;;;;;;;;;;;;;;10.09;100.00;99294.56;4918077;29;20375;-88
2022/11/14 04:28:03;;;;;;;;;;;;;;;10.09;100.00;99290.09;4919610;29;20033;-88
2022/11/14 04:30:29;;;;;;;;;;;;;;;10.07;100.00;99291.09;4919373;29;19926;-88
2022/11/14 04:32:54;;;;;;;;;;;;;;;10.09;100.00;99286.63;4918484;29;19967;-88
2022/11/14 04:35:19;;;;;;;;;;;;;;;10.10;100.00;99278.59;4917993;29;19923;-88
2022/11/14 04:37:44;;;;;;;;;;;;;;;10.08;100.00;99275.16;4919453;29;19975;-87
2022/11/14 04:40:10;;;;;;;;;;;;;;;10.09;100.00;99273.38;4919274;29;20371;-87
2022/11/14 04:42:35;;;;;;;;;;;;;;;10.09;100.00;99273.38;4919156;29;20359;-87
2022/11/14 04:45:00;;;;;;;;;;;;;;;10.10;100.00;99275.06;4919258;29;20390;-87
2022/11/14 04:47:26;;;;;;;;;;;;;;;10.08;100.00;99272.50;4918143;29;20014;-87
2022/11/14 04:49:51;;;;;;;;;;;;;;;10.10;100.00;99286.53;4917898;29;19919;-88
2022/11/14 04:52:16;;;;;;;;;;;;;;;10.08;100.00;99287.53;4917781;29;20361;-87
2022/11/14 04:54:42;;;;;;;;;;;;;;;10.09;100.00;99284.81;4918887;29;19919;-86
2022/11/14 04:57:07;;;;;;;;;;;;;;;10.09;100.00;99279.53;4917670;29;19926;-88
2022/11/14 04:59:40;;;;;;;;;;;;;;;10.10;100.00;99283.91;4917612;29;19919;-88
2022/11/14 05:02:05;;;;;;;;;;;;;;;10.09;100.00;99283.97;4918007;29;19935;-92
2022/11/14 08:59:28;;;;;;;;;;;;;;;10.35;100.00;99217.38;4975281;23;19936;-82
2022/11/14 09:01:53;;;;;;;;;;;;;;;10.35;100.00;99209.44;4957323;28;19923;-82
2022/11/14 09:04:19;;;;;;;;;;;;;;;10.36;100.00;99212.94;4955685;29;20440;-81
2022/11/14 09:06:45;;;;;;;;;;;;;;;10.36;100.00;99224.38;4956024;29;19918;-83
2022/11/14 09:09:10;;;;;;;;;;;;;;;10.36;100.00;99224.38;4955855;29;19919;-82
2022/11/14 09:11:35;;;;;;;;;;;;;;;10.36;100.00;99213.78;4956857;29;19929;-82
2022/11/14 09:14:01;;;;;;;;;;;;;;;10.35;100.00;99217.38;4955663;28;19974;-82
2022/11/14 09:16:26;;;;;;;;;;;;;;;10.35;100.00;99224.44;4955553;29;20365;-82
2022/11/14 09:18:52;;;;;;;;;;;;;;;10.37;100.00;99225.25;4955389;29;19918;-83
2022/11/14 09:21:17;;;;;;;;;;;;;;;10.35;100.00;99221.78;4956753;29;19929;-82
2022/11/14 09:23:45;;;;;;;;;;;;;;;10.36;100.00;99224.38;4956626;29;19922;-83
2022/11/14 09:26:10;;;;;;;;;;;;;;;10.39;100.00;99225.13;4956664;29;20333;-82
2022/11/14 09:28:35;;;;;;;;;;;;;;;10.39;100.00;99226.00;4955306;29;19918;-82
2022/11/14 09:31:09;;;;;;;;;;;;;;;10.36;100.00;99221.72;4956793;29;20364;-82
2022/11/14 09:33:34;;;;;;;;;;;;;;;10.36;100.00;99224.38;4956332;29;19937;-82
2022/11/14 09:36:01;;;;;;;;;;;;;;;10.37;100.00;99225.25;4956716;29;19966;-82
2022/11/14 09:38:26;;;;;;;;;;;;;;;10.37;100.00;99230.53;4955072;29;19926;-83
2022/11/14 09:40:51;;;;;;;;;;;;;;;10.39;100.00;99233.06;4956406;29;19918;-82
2022/11/14 09:43:29;;;;;;;;;;;;;;;10.41;100.00;99225.94;4953824;29;19928;-82
2022/11/14 09:45:54;;;;;;;;;;;;;;;10.38;100.00;99219.00;4956434;29;19926;-83
2022/11/14 09:48:21;;;;;;;;;;;;;;;10.39;100.00;99222.47;4956229;29;19918;-82
2022/11/14 09:51:03;;;;;;;;;;;;;;;10.39;100.00;99214.53;4956204;29;19918;-82
2022/11/14 09:53:36;;;;;;;;;;;;;;;10.38;100.00;99205.75;4956072;29;19919;-83
2022/11/14 09:56:01;;;;;;;;;;;;;;;10.39;100.00;99209.25;4956222;28;19925;-82
2022/11/14 09:58:26;;;;;;;;;;;;;;;10.40;100.00;99218.91;4954457;28;19923;-83
2022/11/14 10:00:57;;;;;;;;;;;;;;;10.38;100.00;99215.50;4955473;29;20685;-82
2022/11/14 10:03:22;;;;;;;;;;;;;;;10.38;100.00;99216.34;4955884;29;19918;-82
2022/11/14 10:05:47;;;;;;;;;;;;;;;10.40;100.00;99213.63;4953831;28;19926;-82
2022/11/14 10:08:22;;;;;;;;;;;;;;;10.40;100.00;99214.47;4954630;29;20017;-82
2022/11/14 10:10:50;;;;;;;;;;;;;;;10.41;100.00;99207.41;4955736;29;20456;-83
2022/11/14 10:13:21;;;;;;;;;;;;;;;10.42;100.00;99207.31;4954407;29;19997;-83
2022/11/14 10:15:53;;;;;;;;;;;;;;;10.41;100.00;99213.53;4955693;29;19974;-82
2022/11/14 10:18:57;;;;;;;;;;;;;;;10.41;100.00;99215.34;4955578;29;19922;-82
2022/11/14 10:21:22;;;;;;;;;;;;;;;10.43;100.00;99213.47;4934097;29;20469;-82
2022/11/14 10:24:02;;;;;;;;;;;;;;;10.42;100.00;99217.03;4934231;29;20021;-82
2022/11/14 10:26:29;;;;;;;;;;;;;;;10.43;100.00;99209.00;4946094;29;20204;-82
2022/11/14 10:28:54;;;;;;;;;;;;;;;10.43;100.00;99213.47;4954284;29;19926;-82
2022/11/14 10:31:32;;;;;;;;;;;;;;;10.41;100.00;99215.34;4955631;29;19918;-81
2022/11/14 10:34:18;;;;;;;;;;;;;;;10.42;100.00;99215.25;4955394;29;20382;-81
2022/11/14 10:36:46;;;;;;;;;;;;;;;10.45;100.00;99211.56;4944507;29;19918;-82
2022/11/14 10:39:20;;;;;;;;;;;;;;;10.43;100.00;99205.50;4955330;29;20358;-82
2022/11/14 10:41:48;;;;;;;;;;;;;;;10.45;100.00;99203.63;4954198;29;20351;-84
2022/11/14 10:44:17;;;;;;;;;;;;;;;10.43;100.00;99197.56;4954074;29;19915;-82
2022/11/14 10:46:47;;;;;;;;;;;;;;;10.43;100.00;99193.13;4955100;29;19965;-82
2022/11/14 10:49:22;;;;;;;;;;;;;;;10.45;100.00;99201.88;4954014;29;19915;-83
2022/11/14 10:51:56;;;;;;;;;;;;;;;10.44;100.00;99192.19;4955283;29;19926;-82
2022/11/14 10:54:40;;;;;;;;;;;;;;;10.46;100.00;99192.13;4955345;29;19937;-84
2022/11/14 10:57:15;;;;;;;;;;;;;;;10.44;100.00;99189.53;4953850;29;19922;-82
2022/11/14 10:59:42;;;;;;;;;;;;;;;10.46;100.00;99192.13;4954939;28;19923;-82
2022/11/14 11:02:07;;;;;;;;;;;;;;;10.45;100.00;99191.28;4955237;28;19970;-82
2022/11/14 11:04:34;;;;;;;;;;;;;;;10.47;100.00;99189.38;4955028;29;19958;-82
2022/11/14 11:07:08;;;;;;;;;;;;;;;10.46;100.00;99194.75;4955275;29;20017;-82
2022/11/14 11:12:37;;;;;;;;;;;;;;;10.47;100.00;99180.59;4953823;29;20396;-82
2022/11/14 11:15:19;;;;;;;;;;;;;;;10.46;100.00;99177.06;4955107;29;19914;-81
2022/11/14 11:17:54;;;;;;;;;;;;;;;10.47;100.00;99173.50;4958367;29;19973;-82
2022/11/14 11:20:28;;;;;;;;;;;;;;;10.47;100.00;99172.66;4959094;29;19919;-83
2022/11/14 11:23:16;;;;;;;;;;;;;;;10.47;100.00;99172.66;4957660;29;19981;-83
2022/11/14 11:25:42;;;;;;;;;;;;;;;10.47;100.00;99170.84;4958852;29;19925;-88
2022/11/14 11:28:15;;;;;;;;;;;;;;;10.48;100.00;99175.22;4972423;28;20005;-82
2022/11/14 11:30:54;;;;;;;;;;;;;;;10.47;100.00;99181.44;4958732;29;19919;-81
2022/11/14 11:33:19;;;;;;;;;;;;;;;10.48;100.00;99175.22;4958685;29;19921;-82
2022/11/14 11:35:46;;;;;;;;;;;;;;;10.47;100.00;99181.44;4958596;29;19918;-81
2022/11/14 11:38:12;;;;;;;;;;;;;;;10.49;100.00;99186.66;4958582;29;19918;-84
2022/11/14 11:40:40;;;;;;;;;;;;;;;10.49;100.00;99182.22;4957154;29;20005;-83
2022/11/14 11:43:26;;;;;;;;;;;;;;;10.49;100.00;99189.31;4957330;28;20429;-81
2022/11/14 11:45:53;;;;;;;;;;;;;;;10.50;100.00;99183.94;4958397;29;19946;-86
2022/11/14 11:48:20;;;;;;;;;;;;;;;10.51;100.00;99182.13;4957190;29;20313;-84
2022/11/14 11:50:46;;;;;;;;;;;;;;;10.49;100.00;99186.66;4958318;29;19918;-84
2022/11/14 11:53:17;;;;;;;;;;;;;;;10.48;100.00;99180.53;4958294;29;19915;-83
2022/11/14 11:55:43;;;;;;;;;;;;;;;10.50;100.00;99183.09;4958279;29;19922;-85
2022/11/14 11:58:27;;;;;;;;;;;;;;;10.50;100.00;99183.94;4956870;28;19919;-83
2022/11/14 12:00:55;;;;;;;;;;;;;;;10.49;100.00;99184.84;4958162;29;20297;-82
2022/11/14 12:03:23;;;;;;;;;;;;;;;10.50;100.00;99188.38;4958238;29;19923;-83
2022/11/14 12:05:57;;;;;;;;;;;;;;;10.53;100.00;99182.94;4956688;29;19976;-84
2022/11/14 12:08:34;;;;;;;;;;;;;;;10.52;100.00;99187.34;4956858;29;19925;-82
2022/11/14 12:11:01;;;;;;;;;;;;;;;10.49;100.00;99186.66;4957989;29;19988;-83
2022/11/14 12:13:29;;;;;;;;;;;;;;;10.50;100.00;99193.69;4956742;29;19919;-83
2022/11/14 12:16:10;;;;;;;;;;;;;;;10.50;100.00;99189.22;4956643;29;19976;-83
2022/11/14 12:18:44;;;;;;;;;;;;;;;10.54;100.00;99182.81;4957785;29;19919;-83
2022/11/14 12:21:28;;;;;;;;;;;;;;;10.52;100.00;99174.09;4957844;29;19918;-82
2022/11/14 12:23:56;;;;;;;;;;;;;;;10.51;100.00;99185.66;4957708;29;19978;-82
2022/11/14 12:26:56;;;;;;;;;;;;;;;10.52;100.00;99190.00;4957787;29;19925;-82
2022/11/14 12:29:40;;;;;;;;;;;;;;;10.55;100.00;99186.34;4934236;29;20375;-81
2022/11/14 12:32:09;;;;;;;;;;;;;;;10.54;100.00;99184.63;4954730;29;20263;-82
2022/11/14 12:34:38;;;;;;;;;;;;;;;10.53;100.00;99175.84;4957541;29;19919;-86
2022/11/14 12:37:14;;;;;;;;;;;;;;;10.54;100.00;99180.16;4957566;28;20386;-82
2022/11/14 12:39:39;;;;;;;;;;;;;;;10.53;100.00;99182.94;4956218;29;19933;-82
2022/11/14 12:42:13;;;;;;;;;;;;;;;10.53;100.00;99182.94;4956735;29;19919;-82
2022/11/14 12:44:39;;;;;;;;;;;;;;;10.54;100.00;99185.47;4956125;29;19922;-82
2022/11/14 12:47:04;;;;;;;;;;;;;;;10.55;100.00;99178.41;4957459;28;20016;-83
2022/11/14 12:49:37;;;;;;;;;;;;;;;10.53;100.00;99178.47;4957200;29;19961;-81
2022/11/14 12:52:03;;;;;;;;;;;;;;;10.53;100.00;99182.94;4957289;29;19919;-82
2022/11/14 12:54:42;;;;;;;;;;;;;;;10.54;100.00;99184.63;4957262;29;19977;-83
2022/11/14 12:57:46;;;;;;;;;;;;;;;10.56;100.00;99185.38;4956145;29;19922;-81
2022/11/14 13:00:01;;;;;;;;;;;;;;;10.58;100.00;99177.38;4956623;28;19978;-83
2022/11/14 13:02:45;;;;;;;;;;;;;;;10.54;100.00;99181.97;4955842;29;19918;-82
2022/11/14 13:05:21;;;;;;;;;;;;;;;10.54;100.00;99182.81;4955739;29;20358;-83
2022/11/14 13:08:05;;;;;;;;;;;;;;;10.54;100.00;99180.16;4956951;29;19946;-82
2022/11/14 13:10:35;;;;;;;;;;;;;;;10.57;100.00;99180.97;4956823;29;19918;-82
2022/11/14 13:24:06;;;;;;;;;;;;;;;10.58;100.00;99175.59;4956993;29;19925;-82
2022/11/14 13:26:31;;;;;;;;;;;;;;;10.60;100.00;99176.34;4956708;29;19919;-82
2022/11/14 13:28:56;;;;;;;;;;;;;;;10.62;100.00;99177.13;4955309;29;19970;-82
2022/11/14 13:31:42;;;;;;;;;;;;;;;10.59;100.00;99165.84;4955298;29;19918;-82
2022/11/14 13:34:26;;;;;;;;;;;;;;;10.60;100.00;99171.06;4956514;29;20057;-85
2022/11/14 13:37:07;;;;;;;;;;;;;;;10.60;100.00;99176.34;4956461;29;19919;-84
2022/11/14 13:39:47;;;;;;;;;;;;;;;10.61;100.00;99174.56;4956248;28;20370;-84
2022/11/14 13:42:14;;;;;;;;;;;;;;;10.61;100.00;99170.13;4955211;29;19922;-83
2022/11/14 13:44:46;;;;;;;;;;;;;;;10.61;100.00;99170.13;4956375;29;19919;-85
2022/11/14 13:47:34;;;;;;;;;;;;;;;10.62;100.00;99177.13;4956296;29;20437;-83
2022/11/14 13:50:02;;;;;;;;;;;;;;;10.62;100.00;99171.81;4956131;29;19922;-83
2022/11/14 13:52:30;;;;;;;;;;;;;;;10.63;100.00;99167.41;4956266;29;19919;-85
2022/11/14 13:54:56;;;;;;;;;;;;;;;10.60;100.00;99171.06;4956068;28;20366;-85
2022/11/14 13:57:30;;;;;;;;;;;;;;;10.62;100.00;99169.19;4954778;29;19930;-86
2022/11/14 14:00:02;;;;;;;;;;;;;;;10.62;100.00;99176.28;4954654;28;20353;-84
2022/11/14 14:02:27;;;;;;;;;;;;;;;10.60;100.00;99168.41;4955992;29;19919;-81
2022/11/14 14:04:56;;;;;;;;;;;;;;;10.64;100.00;99161.16;4955811;29;19985;-84
2022/11/14 14:07:30;;;;;;;;;;;;;;;10.63;100.00;99162.09;4956051;29;20701;-81
2022/11/14 14:09:58;;;;;;;;;;;;;;;10.61;100.00;99159.53;4955796;29;19914;-84
2022/11/14 14:12:31;;;;;;;;;;;;;;;10.64;100.00;99163.78;4954627;29;20472;-82
2022/11/14 14:15:15;;;;;;;;;;;;;;;10.65;100.00;99158.41;4955689;29;20370;-82
2022/11/14 14:17:48;;;;;;;;;;;;;;;10.65;100.00;99153.13;4955749;29;19922;-85
2022/11/14 14:20:19;;;;;;;;;;;;;;;10.66;100.00;99159.28;4955723;29;19925;-82
2022/11/14 14:23:03;;;;;;;;;;;;;;;10.66;100.00;99162.78;4955704;29;20004;-83
2022/11/14 14:25:49;;;;;;;;;;;;;;;10.67;100.00;99153.03;4955625;29;19922;-84
2022/11/14 14:28:21;;;;;;;;;;;;;;;10.67;100.00;99166.28;4954253;29;19922;-86
2022/11/14 14:31:02;;;;;;;;;;;;;;;10.65;100.00;99162.88;4954329;29;20445;-84
2022/11/14 14:33:29;;;;;;;;;;;;;;;10.64;100.00;99164.69;4946069;29;20304;-80
2022/11/14 14:35:54;;;;;;;;;;;;;;;10.64;100.00;99169.97;4969896;28;19933;-86
2022/11/14 14:38:24;;;;;;;;;;;;;;;10.63;100.00;99168.25;4954984;29;19919;-84
2022/11/14 14:40:51;;;;;;;;;;;;;;;10.64;100.00;99174.41;4953190;29;19923;-82
2022/11/14 14:43:32;;;;;;;;;;;;;;;10.63;100.00;99168.25;4969959;28;19966;-82
2022/11/14 14:45:58;;;;;;;;;;;;;;;10.64;100.00;99177.03;4948937;28;19989;-81
2022/11/14 14:48:27;;;;;;;;;;;;;;;10.65;100.00;99168.16;4937134;29;20306;-83
2022/11/14 14:50:54;;;;;;;;;;;;;;;10.54;100.00;99169.56;4942661;28;20295;-81
2022/11/14 14:53:20;;;;;;;;;;;;;;;9.49;100.00;99173.94;4955414;28;20397;-81
2022/11/14 14:55:59;;;;;;;;;;;;;;;8.82;100.00;99184.09;4937234;28;19919;-82
2022/11/14 14:58:28;;;;;;;;;;;;;;;8.57;100.00;99184.34;4934586;29;19918;-84
2022/11/14 15:01:04;;;;;;;;;;;;;;;8.31;100.00;99178.38;4934735;29;19930;-82
2022/11/14 15:03:34;;;;;;;;;;;;;;;8.14;100.00;99176.47;4950801;29;19922;-81
2022/11/14 15:06:01;;;;;;;;;;;;;;;7.99;100.00;99174.47;4935940;29;19962;-82
2022/11/14 15:08:27;;;;;;;;;;;;;;;7.85;100.00;99179.44;4934827;29;19927;-84
2022/11/14 15:10:55;;;;;;;;;;;;;;;7.79;100.00;99173.53;4937175;29;19919;-80
2022/11/14 15:13:22;;;;;;;;;;;;;;;7.72;100.00;99174.72;4951693;29;19919;-84
2022/11/14 15:15:48;;;;;;;;;;;;;;;7.63;100.00;99177.72;4968253;28;20293;-81
2022/11/14 15:18:18;;;;;;;;;;;;;;;7.53;100.00;99174.59;4966553;28;20370;-85
2022/11/14 15:21:04;;;;;;;;;;;;;;;7.41;100.00;99177.72;4952046;29;20029;-86
2022/11/14 15:23:30;;;;;;;;;;;;;;;7.34;100.00;99174.47;4953631;29;19924;-83
2022/11/14 15:26:15;;;;;;;;;;;;;;;7.23;100.00;99182.78;4966242;28;19918;-83
2022/11/14 15:28:41;;;;;;;;;;;;;;;7.18;100.00;99179.47;4951968;28;20361;-83
2022/11/14 15:31:14;;;;;;;;;;;;;;;7.11;100.00;99177.13;4937792;28;19919;-83
2022/11/14 15:33:39;;;;;;;;;;;;;;;6.94;100.00;99175.13;4955460;28;19918;-84
2022/11/14 15:36:16;;;;;;;;;;;;;;;6.88;100.00;99178.84;4941249;29;19966;-85
2022/11/14 15:38:57;;;;;;;;;;;;;;;6.86;100.00;99178.03;4952731;29;19972;-83
2022/11/14 15:41:28;;;;;;;;;;;;;;;6.77;100.00;99175.78;4946446;28;20342;-85
2022/11/14 15:44:00;;;;;;;;;;;;;;;6.71;100.00;99182.94;4944667;29;20334;-86
2022/11/14 15:46:28;;;;;;;;;;;;;;;6.61;100.00;99178.94;4944076;29;19969;-87
2022/11/14 15:48:54;;;;;;;;;;;;;;;6.49;100.00;99180.28;4949283;29;19950;-83
2022/11/14 15:51:36;;;;;;;;;;;;;;;6.44;100.00;99173.44;4964671;28;19965;-83
2022/11/14 15:54:01;;;;;;;;;;;;;;;6.41;100.00;99174.38;4963484;28;19924;-84
2022/11/14 15:56:29;;;;;;;;;;;;;;;6.31;100.00;99181.75;4961731;28;20277;-85
2022/11/14 15:58:54;;;;;;;;;;;;;;;6.24;100.00;99179.38;4954607;28;20421;-84
2022/11/14 16:01:24;;;;;;;;;;;;;;;6.11;100.00;99178.94;4966616;28;19957;-85
2022/11/14 16:03:50;;;;;;;;;;;;;;;6.07;100.00;99175.56;4971947;28;19914;-84
2022/11/14 16:06:15;;;;;;;;;;;;;;;5.95;100.00;99183.84;4976228;28;20270;-84
2022/11/14 16:08:41;;;;;;;;;;;;;;;5.87;100.00;99184.13;4976260;28;20033;-88
2022/11/14 16:11:06;;;;;;;;;;;;;;;5.82;100.00;99184.28;4977189;28;19921;-85
2022/11/14 16:13:31;;;;;;;;;;;;;;;5.71;100.00;99185.50;4976212;28;19922;-85
2022/11/14 16:15:56;;;;;;;;;;;;;;;5.74;100.00;99185.41;4960558;28;20281;-84
2022/11/14 16:18:22;;;;;;;;;;;;;;;5.73;100.00;99183.72;4957758;29;20082;-84
2022/11/14 16:20:47;;;;;;;;;;;;;;;5.68;100.00;99178.59;4952882;28;20013;-86
2022/11/14 16:23:12;;;;;;;;;;;;;;;5.85;100.00;99185.06;4977106;28;20317;-85
2022/11/14 16:25:38;;;;;;;;;;;;;;;6.07;100.00;99190.50;4977145;28;19954;-86
2022/11/14 16:28:03;;;;;;;;;;;;;;;6.14;100.00;99194.63;4975848;28;19926;-85
2022/11/14 16:30:28;;;;;;;;;;;;;;;6.24;100.00;99188.16;4977201;28;20557;-85
2022/11/14 16:32:56;;;;;;;;;;;;;;;6.35;100.00;99185.13;4975856;28;19918;-89
2022/11/14 16:35:23;;;;;;;;;;;;;;;6.36;100.00;99195.59;4976920;28;20020;-85
2022/11/14 16:37:48;;;;;;;;;;;;;;;6.38;100.00;99192.91;4975630;28;19922;-85
2022/11/14 16:40:18;;;;;;;;;;;;;;;6.37;100.00;99196.47;4972188;28;19923;-85
2022/11/14 16:42:44;;;;;;;;;;;;;;;6.42;100.00;99189.28;4952895;29;19949;-84
2022/11/14 16:45:09;;;;;;;;;;;;;;;6.34;100.00;99197.44;4954117;28;19923;-85
2022/11/14 16:47:35;;;;;;;;;;;;;;;6.33;100.00;99195.75;4951460;29;19969;-85
2022/11/14 16:50:00;;;;;;;;;;;;;;;6.37;100.00;99199.13;4947939;29;19919;-85
2022/11/14 16:52:26;;;;;;;;;;;;;;;6.40;100.00;99206.91;4947037;29;20289;-84
2022/11/14 16:54:51;;;;;;;;;;;;;;;6.38;100.00;99202.59;4953714;29;19919;-84
2022/11/14 16:57:17;;;;;;;;;;;;;;;6.40;100.00;99201.63;4945945;28;19926;-84
2022/11/14 16:59:42;;;;;;;;;;;;;;;6.40;100.00;99206.03;4949655;28;20337;-84
2022/11/14 17:02:12;;;;;;;;;;;;;;;6.38;100.00;99206.06;4937913;29;19929;-85
2022/11/14 17:04:37;;;;;;;;;;;;;;;6.43;100.00;99203.28;4962450;28;19918;-85
2022/11/14 17:07:03;;;;;;;;;;;;;;;6.43;100.00;99209.44;4954043;29;19968;-85
2022/11/14 17:09:28;;;;;;;;;;;;;;;6.39;100.00;99205.19;4955908;28;19918;-85
2022/11/14 17:11:53;;;;;;;;;;;;;;;6.39;100.00;99193.81;4963295;28;20017;-85
2022/11/14 17:14:18;;;;;;;;;;;;;;;6.35;100.00;99193.91;4936134;29;20293;-84
2022/11/14 17:16:45;;;;;;;;;;;;;;;6.36;100.00;99205.28;4936491;29;19919;-84
2022/11/14 17:19:10;;;;;;;;;;;;;;;6.46;100.00;99201.44;4937674;29;19926;-84
2022/11/14 17:21:35;;;;;;;;;;;;;;;6.44;100.00;99199.75;4937684;29;19919;-83
2022/11/14 17:24:00;;;;;;;;;;;;;;;6.41;100.00;99203.34;4936263;29;20019;-83
2022/11/14 17:26:26;;;;;;;;;;;;;;;6.48;100.00;99198.75;4934569;29;19923;-83
2022/11/14 17:28:52;;;;;;;;;;;;;;;6.38;100.00;99200.81;4935128;29;19919;-86
2022/11/14 17:31:17;;;;;;;;;;;;;;;6.38;100.00;99198.19;4936130;29;20374;-85
2022/11/14 17:33:48;;;;;;;;;;;;;;;6.40;100.00;99206.91;4937423;29;20293;-85
2022/11/14 17:36:13;;;;;;;;;;;;;;;6.36;100.00;99200.88;4937243;29;19996;-84
2022/11/14 17:38:39;;;;;;;;;;;;;;;6.38;100.00;99199.97;4937334;29;20018;-86
2022/11/14 17:41:07;;;;;;;;;;;;;;;6.40;100.00;99206.03;4937252;29;19926;-86
2022/11/14 17:43:33;;;;;;;;;;;;;;;6.61;100.00;99209.69;4950873;29;20412;-86
2022/11/14 17:45:58;;;;;;;;;;;;;;;6.50;100.00;99212.69;4937100;29;20002;-86
2022/11/14 17:48:23;;;;;;;;;;;;;;;6.44;100.00;99207.66;4951784;29;20030;-86
2022/11/14 17:50:49;;;;;;;;;;;;;;;6.41;100.00;99213.03;4937079;29;19989;-86
2022/11/14 17:53:14;;;;;;;;;;;;;;;6.40;100.00;99214.81;4945159;29;19965;-85
2022/11/14 17:55:39;;;;;;;;;;;;;;;6.36;100.00;99219.28;4943883;29;19925;-85
2022/11/14 17:58:05;;;;;;;;;;;;;;;6.38;100.00;99223.66;4944786;29;19926;-84
2022/11/14 18:00:30;;;;;;;;;;;;;;;6.36;100.00;99232.44;4939848;29;19922;-84
2022/11/14 18:02:56;;;;;;;;;;;;;;;6.35;100.00;99220.22;4958581;28;19919;-86
2022/11/14 18:05:21;;;;;;;;;;;;;;;6.30;100.00;99214.25;4948693;29;20367;-86
2022/11/14 18:07:46;;;;;;;;;;;;;;;6.26;100.00;99215.25;4938514;29;19973;-88
2022/11/14 18:10:12;;;;;;;;;;;;;;;6.31;100.00;99215.13;4948449;29;19965;-85
2022/11/14 18:12:37;;;;;;;;;;;;;;;6.31;100.00;99213.31;4958210;28;19922;-85
2022/11/14 18:15:02;;;;;;;;;;;;;;;6.31;100.00;99215.97;4946374;29;19926;-86
2022/11/14 18:17:28;;;;;;;;;;;;;;;6.26;100.00;99215.25;4964251;28;19922;-85
2022/11/14 18:19:55;;;;;;;;;;;;;;;6.24;100.00;99222.38;4944862;29;19926;-84
2022/11/14 18:22:20;;;;;;;;;;;;;;;6.26;100.00;99228.41;4943828;29;19958;-85
2022/11/14 18:24:46;;;;;;;;;;;;;;;6.29;100.00;99224.84;4955401;29;19929;-85
2022/11/14 18:27:11;;;;;;;;;;;;;;;6.25;100.00;99226.69;4943372;28;19930;-88
2022/11/14 18:29:37;;;;;;;;;;;;;;;6.25;100.00;99228.47;4941009;28;19923;-86
2022/11/14 18:32:02;;;;;;;;;;;;;;;6.24;100.00;99227.63;4954437;29;20294;-85
2022/11/14 18:34:27;;;;;;;;;;;;;;;6.22;100.00;99218.91;4954560;29;19961;-86
2022/11/14 18:36:53;;;;;;;;;;;;;;;6.24;100.00;99225.00;4936316;29;19986;-90
2022/11/14 18:39:18;;;;;;;;;;;;;;;6.21;100.00;99225.09;4936144;29;20429;-84
2022/11/14 18:41:43;;;;;;;;;;;;;;;6.24;100.00;99218.84;4936321;29;19919;-88
2022/11/14 18:44:08;;;;;;;;;;;;;;;6.25;100.00;99221.44;4934944;29;20381;-86
2022/11/14 18:46:34;;;;;;;;;;;;;;;6.18;100.00;99227.81;4936145;29;20373;-85
2022/11/14 18:48:59;;;;;;;;;;;;;;;6.16;100.00;99230.50;4936217;29;19926;-86
2022/11/14 18:51:26;;;;;;;;;;;;;;;6.20;100.00;99225.16;4936146;29;19919;-85
2022/11/14 18:53:51;;;;;;;;;;;;;;;6.20;100.00;99230.41;4936252;29;19918;-85
2022/11/14 18:56:18;;;;;;;;;;;;;;;6.21;100.00;99227.72;4940084;29;19926;-86
2022/11/14 18:58:46;;;;;;;;;;;;;;;6.20;100.00;99230.41;4941364;28;19929;-87
2022/11/14 19:01:13;;;;;;;;;;;;;;;6.18;100.00;99223.41;4944642;28;19918;-85
2022/11/14 19:03:38;;;;;;;;;;;;;;;6.14;100.00;99223.56;4955073;28;19918;-85
2022/11/14 19:06:05;;;;;;;;;;;;;;;6.11;100.00;99226.28;4954349;29;20032;-85
2022/11/14 19:08:30;;;;;;;;;;;;;;;6.07;100.00;99227.31;4935830;29;19922;-86
2022/11/14 19:10:59;;;;;;;;;;;;;;;6.07;100.00;99222.06;4935870;29;19926;-86
2022/11/14 19:13:24;;;;;;;;;;;;;;;6.09;100.00;99221.09;4937657;29;19923;-87
2022/11/14 19:15:52;;;;;;;;;;;;;;;6.10;100.00;99217.56;4950498;28;19977;-84
2022/11/14 19:18:17;;;;;;;;;;;;;;;6.08;100.00;99222.03;4952673;28;20005;-85
2022/11/14 19:20:42;;;;;;;;;;;;;;;6.11;100.00;99226.28;4954241;29;19978;-87